This is the latest recevied weather packets stored in our database for station/object W4DEX-2. If no packets are shown the sender has not sent any weather packets the latest 10 day(s).
| Time | Temp. | Humidity | Pressure | Rain* | Wind** | Luminosity | Snow |
|---|---|---|---|---|---|---|---|
| 1777558202 | 15.56° C | 76% | 1010.4 hPa | 0 mm | 4.02 m/s, 177° | - | - |
| 1777557902 | 15° C | 77% | 1010.5 hPa | 0 mm | 4.02 m/s, 176° | - | - |
| 1777557603 | 15° C | 80% | 1010.5 hPa | 0 mm | 4.92 m/s, 175° | - | - |
| 1777557303 | 15° C | 81% | 1010.5 hPa | 0 mm | 4.47 m/s, 176° | - | - |
| 1777557002 | 15° C | 80% | 1010.6 hPa | 0 mm | 5.36 m/s, 175° | - | - |
| 1777556102 | 15° C | 79% | 1011.1 hPa | 0 mm | 4.92 m/s, 177° | - | - |
| 1777555802 | 15° C | 80% | 1011.1 hPa | 0 mm | 4.92 m/s, 177° | - | - |
| 1777555502 | 15° C | 79% | 1011.2 hPa | 0 mm | 5.81 m/s, 178° | - | - |
| 1777555202 | 15° C | 78% | 1011.1 hPa | 0 mm | 4.47 m/s, 179° | - | - |
| 1777554903 | 14.44° C | 76% | 1011.3 hPa | 0 mm | 4.02 m/s, 177° | - | - |
| 1777554605 | 14.44° C | 78% | 1011.1 hPa | 0 mm | 4.47 m/s, 176° | - | - |
| 1777554302 | 14.44° C | 78% | 1011 hPa | 0 mm | 4.92 m/s, 174° | - | - |
| 1777554002 | 14.44° C | 76% | 1011.2 hPa | 0 mm | 4.47 m/s, 181° | - | - |
| 1777553702 | 14.44° C | 78% | 1011.1 hPa | 0 mm | 6.26 m/s, 179° | - | - |
| 1777553403 | 14.44° C | 77% | 1010.9 hPa | 0 mm | 5.81 m/s, 175° | - | - |
| 1777553103 | 14.44° C | 77% | 1011.1 hPa | 0 mm | 4.92 m/s, 173° | - | - |
| 1777552802 | 13.89° C | 78% | 1011.3 hPa | 0 mm | 5.36 m/s, 171° | - | - |
| 1777552203 | 14.44° C | 78% | 1011.5 hPa | 0 mm | 3.58 m/s, 180° | - | - |
| 1777551903 | 14.44° C | 75% | 1011.2 hPa | 0 mm | 4.92 m/s, 177° | - | - |
| 1777551602 | 13.89° C | 75% | 1011.2 hPa | 0 mm | 5.36 m/s, 176° | - | - |
| 1777551305 | 13.89° C | 77% | 1011.2 hPa | 0 mm | 5.81 m/s, 176° | - | - |
| 1777551002 | 13.89° C | 78% | 1011.4 hPa | 0 mm | 5.36 m/s, 179° | - | - |
| 1777550702 | 15° C | 80% | 1010.9 hPa | 0 mm | 5.81 m/s, 180° | - | - |
| 1777550403 | 15° C | 70% | 1010.7 hPa | 0 mm | 4.92 m/s, 182° | - | - |
| 1777550103 | 15° C | 72% | 1010.7 hPa | 0 mm | 4.92 m/s, 177° | - | - |
* Rain latest hour (hover to see other rain measurements)
** Current wind speed in m/s (hover to see current wind gust speed)